KEUG/EUG METAR and TAF weather

Enter ICAO airport designator
Station Type Date Time Source
KEUG METAR 2022/05/26 03:54 UTC NOAA

KEUG 260354Z 35003KT 10SM SCT200 BKN250 18/14 A2992 RMK AO2 SLP131 T01780139 $


Station Type Date Time Source
KEUG Decoded METAR 2022/05/26 03:54 UTC NOAA

MAHLON SWEET FIELD, OR, United States (KEUG) 44-08N 123-13W 114M
May 25, 2022 - 11:54 PM EDT / 2022.05.26 0354 UTC
Wind: from the N (350 degrees) at 3 MPH (3 KT):0
Visibility: 10 mile(s):0
Sky conditions: mostly cloudy
Temperature: 64.0 F (17.8 C)
Dew Point: 57.0 F (13.9 C)
Relative Humidity: 77%
Pressure (altimeter): 29.92 in. Hg (1013 hPa)
ob: KEUG 260354Z 35003KT 10SM SCT200 BKN250 18/14 A2992 RMK AO2 SLP131 T01780139
cycle: 4

Station Type Date Time Source
KEUG TAF 2022/05/25 18:24 UTC NOAA

TAF KEUG 251722Z 2518/2618 00000KT P6SM BKN045
FM251900 35006KT P6SM FEW050
FM260000 02005KT P6SM SCT250
FM260800 VRB02KT P6SM BKN070

Example: see airport list